Latest Weather Observations for Troughton Island

IDW60801

Issued at 9:33 am WST Wednesday 27 July 2016 (issued every 30 minutes, with the page automatically refreshed every 10 minutes)

About weather observations | Map of weather stations | Latest weather observations for WA | Other Formats
Station Details ID: 001007 Name: TROUGHTON ISLAND Lat: -13.75 Lon: 126.15 Height: 6.0 m
Data from the previous 72 hours. | See also: Recent months at Troughton Island
Date/Time
WST
Temp
°C
App
Temp
°C
Dew
Point
°C
Rel
Hum
%
Delta-T
°C
Wind Press
QNH
hPa
Press
MSL
hPa
Rain since
9am
mm
Dir  Spd
km/h
Gust
km/h
Spd
kts
Gust
kts
27/09:30am 27.9 23.7 16.2 49 7.2 ESE 33 41 18 22 1015.7 1015.6 0.0
27/09:00am 27.8 22.5 14.1 43 8.2 ESE 35 44 19 24 1015.8 1015.7 0.0
27/08:30am 27.7 23.3 16.6 50 6.9 ESE 35 43 19 23 1015.8 1015.7 0.0
27/08:00am 26.6 26.6 20.9 71 3.8 SSE 22 28 12 15 1015.6 1015.5 0.0
27/07:30am 26.1 26.0 20.7 72 3.5 SE 22 28 12 15 1015.4 1015.3 0.0
27/07:00am 25.6 26.5 21.5 78 2.7 SE 19 22 10 12 1015.2 1015.1 0.0
27/06:30am 24.6 25.2 21.1 81 2.3 SE 19 20 10 11 1014.8 1014.7 0.0
27/06:00am 24.3 25.5 22.2 88 1.4 SSE 19 22 10 12 1014.5 1014.4 0.0
27/05:30am 24.5 26.8 22.8 90 1.1 SSE 15 17 8 9 1014.1 1014.0 0.0
27/05:00am 24.5 26.7 22.6 89 1.3 SSE 15 17 8 9 1013.7 1013.6 0.0
27/04:30am 24.7 27.1 22.9 90 1.2 SSE 15 17 8 9 1013.5 1013.4 0.0
27/04:00am 24.9 28.1 23.1 90 1.2 S 11 13 6 7 1013.5 1013.4 0.0
27/03:30am 24.9 28.3 23.3 91 1.1 S 11 15 6 8 1013.3 1013.2 0.0
27/03:00am 24.9 27.9 23.3 91 1.1 S 13 15 7 8 1013.0 1012.9 0.0
27/02:30am 24.6 27.9 22.5 88 1.4 S 9 9 5 5 1013.0 1012.9 0.0
27/02:00am 24.6 28.4 22.7 89 1.3 S 7 9 4 5 1013.2 1013.1 0.0
27/01:30am 24.4 28.0 22.3 88 1.4 S 7 9 4 5 1013.4 1013.3 0.0
27/01:00am 24.3 27.8 21.8 86 1.7 E 6 7 3 4 1013.5 1013.4 0.0
27/12:30am 25.3 29.1 22.8 86 1.7 E 7 7 4 4 1013.7 1013.6 0.0
27/12:00am 25.4 29.3 22.9 86 1.7 ENE 7 9 4 5 1013.8 1013.7 0.0
 
Date/Time
WST
Temp
°C
App
Temp
°C
Dew
Point
°C
Rel
Hum
%
Delta-T
°C
Wind Press
QNH
hPa
Press
MSL
hPa
Rain since
9am
mm
Dir  Spd
km/h
Gust
km/h
Spd
kts
Gust
kts
26/11:30pm 25.3 29.0 22.6 85 1.8 NE 7 11 4 6 1013.9 1013.8 0.0
26/11:00pm 25.8 28.9 22.9 84 2.0 NE 11 13 6 7 1014.0 1013.9 0.0
26/10:30pm 25.9 28.2 22.8 83 2.1 NE 15 17 8 9 1014.1 1014.0 0.0
26/10:00pm 25.9 28.4 23.2 85 1.8 ENE 15 17 8 9 1014.2 1014.1 0.0
26/09:30pm 26.1 28.3 23.2 84 2.0 NE 17 20 9 11 1014.2 1014.1 0.0
26/09:00pm 26.1 28.6 23.2 84 2.0 NE 15 20 8 11 1014.2 1014.1 0.0
26/08:30pm 26.2 28.3 23.1 83 2.1 NE 17 19 9 10 1014.2 1014.1 0.0
26/08:00pm 26.2 27.8 22.9 82 2.2 NE 19 20 10 11 1014.0 1013.9 0.0
26/07:30pm 26.4 28.5 23.1 82 2.2 NE 17 24 9 13 1013.7 1013.6 0.0
26/07:00pm 26.5 28.0 23.0 81 2.4 NE 20 24 11 13 1013.6 1013.5 0.0
26/06:30pm 26.6 27.9 22.7 79 2.6 NE 20 26 11 14 1013.1 1013.0 0.0
26/06:00pm 26.8 28.1 22.6 78 2.8 NE 20 30 11 16 1012.5 1012.4 0.0
26/05:30pm 26.9 27.8 22.7 78 2.8 NE 22 28 12 15 1012.1 1012.0 0.0
26/05:00pm 27.2 27.3 22.6 76 3.1 NE 26 33 14 18 1011.7 1011.6 0.0
26/04:30pm 27.5 27.5 22.4 73 3.4 NE 26 33 14 18 1011.5 1011.4 0.0
26/04:00pm 28.0 27.8 22.7 73 3.6 NE 28 33 15 18 1011.1 1011.0 0.0
26/03:30pm 28.5 28.4 22.3 69 4.2 NE 26 33 14 18 1009.4 1009.3 0.0
26/03:00pm 28.4 28.5 21.9 68 4.4 NE 24 32 13 17 1011.1 1011.0 0.0
26/02:30pm 28.5 28.4 21.5 66 4.7 NE 24 30 13 16 1011.2 1011.1 0.0
26/02:00pm 29.1 28.7 21.6 64 5.0 NE 26 32 14 17 1011.4 1011.3 0.0
26/01:30pm 29.5 29.7 21.4 61 5.4 ENE 22 30 12 16 1011.7 1011.6 0.0
26/01:00pm 28.9 28.9 18.9 54 6.5 NE 17 20 9 11 1012.0 1011.9 0.0
26/12:30pm 29.5 28.8 17.3 47 7.7 ENE 17 22 9 12 1012.2 1012.1 0.0
26/12:00pm 29.7 29.6 17.8 48 7.6 E 15 19 8 10 1012.7 1012.6 0.0
26/11:30am 30.1 29.2 16.9 45 8.3 ESE 17 20 9 11 1013.1 1013.0 0.0
26/11:00am 29.7 28.4 17.2 47 7.9 ESE 20 24 11 13 1013.6 1013.5 0.0
26/10:30am 30.3 27.9 16.3 42 8.7 ESE 24 30 13 16 1014.0 1013.9 0.0
26/10:00am 27.9 29.7 21.9 70 4.0 SE 15 19 8 10 1014.2 1014.1 0.0
26/09:30am 27.2 28.4 21.5 71 3.8 SE 17 19 9 10 1014.4 1014.3 0.0
26/09:00am 27.1 27.9 21.8 73 3.5 SE 20 26 11 14 1014.7 1014.6 0.0
26/08:30am 26.8 28.7 22.8 79 2.7 SE 17 24 9 13 1014.6 1014.5 0.0
26/08:00am 26.8 28.7 22.8 79 2.7 SE 17 19 9 10 1014.5 1014.4 0.0
26/07:30am 26.0 28.6 22.7 82 2.2 SE 13 15 7 8 1014.1 1014.0 0.0
26/07:00am 25.5 28.4 23.2 87 1.6 SSE 13 17 7 9 1013.9 1013.8 0.0
26/06:30am 24.8 27.6 23.0 90 1.2 SSE 13 15 7 8 1013.7 1013.6 0.0
26/06:00am 24.4 27.5 22.8 91 1.1 SSE 11 13 6 7 1013.4 1013.3 0.0
26/05:30am 24.4 27.4 22.7 90 1.1 SSE 11 15 6 8 1013.1 1013.0 0.0
26/05:00am 24.7 27.8 22.9 90 1.2 SSE 11 13 6 7 1013.0 1012.9 0.0
26/04:30am 25.0 27.9 23.1 89 1.3 S 13 13 7 7 1013.0 1012.9 0.0
26/04:00am 25.2 28.2 23.3 89 1.3 S 13 17 7 9 1012.9 1012.8 0.0
26/03:30am 25.2 28.1 23.1 88 1.4 S 13 15 7 8 1012.7 1012.6 0.0
26/03:00am 25.4 28.5 23.5 89 1.3 S 13 15 7 8 1012.7 1012.6 0.0
26/02:30am 25.6 28.3 23.5 88 1.4 SSW 15 17 8 9 1012.8 1012.7 0.0
26/02:00am 25.6 28.8 23.1 86 1.7 SW 11 13 6 7 1013.0 1012.9 0.0
26/01:30am 25.5 28.7 23.0 86 1.7 SW 11 13 6 7 1013.1 1013.0 0.0
26/01:00am 25.3 28.9 23.0 87 1.6 WSW 9 11 5 6 1013.2 1013.1 0.0
26/12:30am 25.2 28.7 22.9 87 1.6 WSW 9 11 5 6 1013.4 1013.3 0.0
26/12:00am 24.9 28.4 22.8 88 1.4 W 9 9 5 5 1013.4 1013.3 0.0
 
Date/Time
WST
Temp
°C
App
Temp
°C
Dew
Point
°C
Rel
Hum
%
Delta-T
°C
Wind Press
QNH
hPa
Press
MSL
hPa
Rain since
9am
mm
Dir  Spd
km/h
Gust
km/h
Spd
kts
Gust
kts
25/11:30pm 25.0 28.9 22.9 88 1.4 NW 7 7 4 4 1013.6 1013.5 0.0
25/11:00pm 25.2 29.2 23.1 88 1.4 NNW 7 9 4 5 1013.7 1013.6 0.0
25/10:30pm 25.4 29.3 22.9 86 1.7 N 7 9 4 5 1013.6 1013.5 0.0
25/10:00pm 25.3 29.3 22.8 86 1.7 N 6 7 3 4 1013.8 1013.7 0.0
25/09:30pm 25.9 29.8 22.6 82 2.2 N 6 7 3 4 1013.9 1013.8 0.0
25/09:00pm 26.4 29.1 22.9 81 2.4 N 13 13 7 7 1013.7 1013.6 0.0
25/08:30pm 26.4 30.3 22.9 81 2.4 N 7 9 4 5 1013.7 1013.6 0.0
25/08:00pm 26.6 29.2 22.7 79 2.6 N 13 15 7 8 1013.4 1013.3 0.0
25/07:30pm 26.6 28.6 22.2 77 3.0 NNE 15 17 8 9 1013.4 1013.3 0.0
25/07:00pm 26.7 29.0 22.1 76 3.1 NNE 13 17 7 9 1013.0 1012.9 0.0
25/06:30pm 27.0 29.1 22.4 76 3.1 NNE 15 19 8 10 1012.6 1012.5 0.0
25/06:00pm 27.2 29.4 22.6 76 3.1 NNE 15 19 8 10 1012.3 1012.2 0.0
25/05:30pm 27.4 30.0 22.6 75 3.2 NNE 13 19 7 10 1011.9 1011.8 0.0
25/05:00pm 28.0 29.5 22.0 70 4.0 NNE 17 22 9 12 1011.6 1011.5 0.0
25/04:30pm 28.4 30.0 22.2 69 4.2 NNE 17 20 9 11 1011.3 1011.2 0.0
25/04:00pm 29.0 31.0 22.2 66 4.6 NNE 15 20 8 11 1011.0 1010.9 0.0
25/03:30pm 29.7 31.3 22.2 64 5.1 NNE 17 20 9 11 1011.0 1010.9 0.0
25/03:00pm 28.9 30.9 22.2 67 4.5 NNE 15 19 8 10 1010.9 1010.8 0.0
25/02:30pm 28.6 30.0 21.9 67 4.5 NNE 17 20 9 11 1010.9 1010.8 0.0
25/02:00pm 29.2 30.4 21.4 63 5.2 NNE 17 20 9 11 1010.9 1010.8 0.0
25/01:30pm 29.0 30.7 20.2 59 5.8 NNE 11 13 6 7 1011.4 1011.3 0.0
25/01:00pm 29.1 31.5 20.8 61 5.5 NE 9 11 5 6 1011.7 1011.6 0.0
25/12:30pm 29.4 31.4 20.0 57 6.2 ENE 9 11 5 6 1012.0 1011.9 0.0
25/12:00pm 28.9 31.2 20.6 61 5.5 ENE 9 11 5 6 1012.4 1012.3 0.0
25/11:30am 29.1 31.7 20.5 59 5.7 NE 7 11 4 6 1013.0 1012.9 0.0
25/11:00am 29.0 31.6 21.2 62 5.2 E 9 11 5 6 1013.5 1013.4 0.0
25/10:30am 28.4 31.0 21.2 65 4.8 ENE 9 13 5 7 1014.0 1013.9 0.0
25/10:00am 28.4 30.6 21.2 65 4.8 ESE 11 13 6 7 1014.2 1014.1 0.0
25/09:30am 28.3 29.9 20.8 63 5.0 ESE 13 15 7 8 1014.3 1014.2 0.0
25/09:00am 28.0 28.9 20.8 65 4.8 E 17 20 9 11 1014.5 1014.4 0.0
25/08:30am 27.8 29.1 21.6 69 4.1 SE 17 20 9 11 1014.2 1014.1 0.0
25/08:00am 27.2 27.9 21.2 69 4.0 SE 19 22 10 12 1014.0 1013.9 0.0
25/07:30am 26.9 28.0 21.2 71 3.8 SE 17 20 9 11 1013.7 1013.6 0.0
25/07:00am 26.2 28.2 21.6 76 3.1 SE 13 17 7 9 1013.2 1013.1 0.0
25/06:30am 25.1 27.3 21.8 82 2.2 SE 13 15 7 8 1013.0 1012.9 0.0
25/06:00am 24.8 26.6 21.9 84 1.9 SSE 15 17 8 9 1012.7 1012.6 0.0
25/05:30am 24.8 26.7 22.1 85 1.8 SE 15 17 8 9 1012.6 1012.5 0.0
25/05:00am 24.8 26.5 22.3 86 1.7 SE 17 19 9 10 1012.3 1012.2 0.0
25/04:30am 24.4 27.1 22.1 87 1.5 SSE 11 15 6 8 1012.1 1012.0 0.0
25/04:00am 24.2 26.8 21.9 87 1.5 SE 11 13 6 7 1012.0 1011.9 0.0
25/03:30am 24.6 28.4 22.7 89 1.3 SSE 7 9 4 5 1012.0 1011.9 0.0
25/03:00am 24.4 28.0 22.3 88 1.4 S 7 9 4 5 1011.9 1011.8 0.0
25/02:30am 24.6 28.0 22.7 89 1.3 S 9 13 5 7 1012.0 1011.9 0.0
25/02:00am 24.8 28.0 23.0 90 1.2 S 11 13 6 7 1012.2 1012.1 0.0
25/01:30am 24.8 28.5 23.2 91 1.1 SE 9 11 5 6 1012.3 1012.2 0.0
25/01:00am 24.7 29.1 22.8 89 1.3 SSE 4 9 2 5 1012.6 1012.5 0.0
25/12:30am 24.7 29.5 22.8 89 1.3 ESE 2 9 1 5 1012.9 1012.8 0.0
25/12:00am 24.6 29.2 21.7 84 1.9 CALM 0 0 0 0 1013.0 1012.9 0.0
 
Date/Time
WST
Temp
°C
App
Temp
°C
Dew
Point
°C
Rel
Hum
%
Delta-T
°C
Wind Press
QNH
hPa
Press
MSL
hPa
Rain since
9am
mm
Dir  Spd
km/h
Gust
km/h
Spd
kts
Gust
kts
24/11:30pm 25.5 29.7 23.2 87 1.6 ENE 6 6 3 3 1013.2 1013.1 0.0
24/11:00pm 25.7 29.9 23.2 86 1.7 ENE 6 6 3 3 1013.2 1013.1 0.0
24/10:30pm 25.6 29.6 23.1 86 1.7 E 7 7 4 4 1013.5 1013.4 0.0
24/10:00pm 25.7 30.0 23.6 88 1.4 ESE 7 9 4 5 1013.8 1013.7 0.0
24/09:30pm 25.4 30.5 22.7 85 1.8 CALM 0 0 0 0 1013.7 1013.6 0.0
24/09:00pm 25.6 30.5 23.1 86 1.7 N 2 7 1 4 1013.3 1013.2 0.0
24/08:30pm 25.4 28.6 23.1 87 1.6 NW 11 13 6 7 1013.1 1013.0 0.0
24/08:00pm 25.2 28.3 22.1 83 2.1 NW 9 11 5 6 1012.9 1012.8 0.0
24/07:30pm 25.5 28.2 22.8 85 1.8 NW 13 17 7 9 1012.6 1012.5 0.0
24/07:00pm 25.9 28.1 22.6 82 2.2 NNW 15 15 8 8 1012.3 1012.2 0.0
24/06:30pm 26.3 29.0 22.8 81 2.4 NNW 13 15 7 8 1011.9 1011.8 0.0
24/06:00pm 26.3 28.9 22.6 80 2.5 NNW 13 13 7 7 1011.7 1011.6 0.0
24/05:30pm 27.2 29.7 22.4 75 3.2 NNW 13 15 7 8 1011.3 1011.2 0.0
24/05:00pm 27.6 30.0 21.6 70 4.0 NNW 11 15 6 8 1010.9 1010.8 0.0
24/04:30pm 28.1 30.5 22.3 70 3.9 NNW 13 17 7 9 1010.5 1010.4 0.0
24/04:00pm 28.3 30.7 22.3 70 4.1 N 13 17 7 9 1010.3 1010.2 0.0
24/03:30pm 28.1 30.3 21.9 69 4.2 N 13 17 7 9 1010.2 1010.1 0.0
24/03:00pm 28.1 29.9 21.1 65 4.7 N 13 17 7 9 1010.3 1010.2 0.0
24/02:30pm 28.7 30.3 20.7 62 5.3 N 13 17 7 9 1010.4 1010.3 0.0
24/02:00pm 29.4 31.2 21.1 61 5.5 WNW 13 13 7 7 1010.3 1010.2 0.0
24/01:30pm 29.2 31.0 21.2 62 5.3 W 13 13 7 7 1010.5 1010.4 0.0
24/01:00pm 30.0 31.4 20.3 56 6.4 SW 13 15 7 8 1011.0 1010.9 0.0
24/12:30pm 30.6 32.4 21.1 57 6.4 WSW 13 17 7 9 1011.5 1011.4 0.0
24/12:00pm 30.3 32.1 21.1 58 6.2 WSW 13 17 7 9 1012.0 1011.9 0.0
24/11:30am 30.0 31.4 20.3 56 6.4 SW 13 15 7 8 1012.6 1012.5 0.0
24/11:00am 29.9 32.2 20.7 57 6.1 WSW 9 13 5 7 1013.1 1013.0 0.0
24/10:30am 29.8 32.5 20.6 57 6.1 S 7 9 4 5 1013.4 1013.3 0.0
24/10:00am 28.9 31.3 20.9 62 5.3 WSW 9 11 5 6 1013.6 1013.5 0.0

Other Formats:

Comma delimited format used in spreadsheet applications
http://www.bom.gov.au/fwo/IDW60801/IDW60801.94102.axf

JavaScript Object Notation format (JSON) in row-major order
http://www.bom.gov.au/fwo/IDW60801/IDW60801.94102.json